sensor_id;sensor_type;location;lat;lon;timestamp;temperature;humidity
4699;DHT22;33708;49.466;11.176;2023-05-28T00:00:06;9.10;1.00
4699;DHT22;33708;49.466;11.176;2023-05-28T00:02:32;9.10;1.00
4699;DHT22;33708;49.466;11.176;2023-05-28T00:04:59;9.10;1.00
4699;DHT22;33708;49.466;11.176;2023-05-28T00:07:24;9.10;1.00
4699;DHT22;33708;49.466;11.176;2023-05-28T00:09:51;9.00;1.00
4699;DHT22;33708;49.466;11.176;2023-05-28T00:12:16;8.90;1.00
4699;DHT22;33708;49.466;11.176;2023-05-28T00:14:42;8.90;1.00
4699;DHT22;33708;49.466;11.176;2023-05-28T00:17:08;8.80;1.00
4699;DHT22;33708;49.466;11.176;2023-05-28T00:19:34;8.80;1.00
4699;DHT22;33708;49.466;11.176;2023-05-28T00:22:00;8.80;1.00
4699;DHT22;33708;49.466;11.176;2023-05-28T00:24:25;8.80;1.00
4699;DHT22;33708;49.466;11.176;2023-05-28T00:26:51;8.80;1.00
4699;DHT22;33708;49.466;11.176;2023-05-28T00:29:17;8.80;1.00
4699;DHT22;33708;49.466;11.176;2023-05-28T00:31:42;8.70;1.00
4699;DHT22;33708;49.466;11.176;2023-05-28T00:34:08;8.80;1.00
4699;DHT22;33708;49.466;11.176;2023-05-28T00:36:33;8.70;1.00
4699;DHT22;33708;49.466;11.176;2023-05-28T00:38:59;8.70;1.00
4699;DHT22;33708;49.466;11.176;2023-05-28T00:41:30;8.80;1.00
4699;DHT22;33708;49.466;11.176;2023-05-28T00:43:56;8.70;1.00
4699;DHT22;33708;49.466;11.176;2023-05-28T00:46:23;8.70;1.00
4699;DHT22;33708;49.466;11.176;2023-05-28T00:48:50;8.60;1.00
4699;DHT22;33708;49.466;11.176;2023-05-28T00:51:16;8.70;1.00
4699;DHT22;33708;49.466;11.176;2023-05-28T00:53:42;8.60;1.00
4699;DHT22;33708;49.466;11.176;2023-05-28T00:56:09;8.50;1.00
4699;DHT22;33708;49.466;11.176;2023-05-28T00:58:41;8.50;1.00
4699;DHT22;33708;49.466;11.176;2023-05-28T01:01:09;8.60;1.00
4699;DHT22;33708;49.466;11.176;2023-05-28T01:03:37;8.50;1.00
4699;DHT22;33708;49.466;11.176;2023-05-28T01:06:07;8.50;1.00
4699;DHT22;33708;49.466;11.176;2023-05-28T01:08:37;8.50;1.00
4699;DHT22;33708;49.466;11.176;2023-05-28T01:11:04;8.40;1.00
4699;DHT22;33708;49.466;11.176;2023-05-28T01:13:30;8.40;1.00
4699;DHT22;33708;49.466;11.176;2023-05-28T01:15:56;8.30;1.00
4699;DHT22;33708;49.466;11.176;2023-05-28T01:18:22;8.30;1.00
4699;DHT22;33708;49.466;11.176;2023-05-28T01:20:48;8.20;1.00
4699;DHT22;33708;49.466;11.176;2023-05-28T01:23:18;8.20;1.00
4699;DHT22;33708;49.466;11.176;2023-05-28T01:25:51;8.20;1.00
4699;DHT22;33708;49.466;11.176;2023-05-28T01:28:18;8.10;1.00
4699;DHT22;33708;49.466;11.176;2023-05-28T01:30:43;8.10;1.00
4699;DHT22;33708;49.466;11.176;2023-05-28T01:33:09;8.30;1.00
4699;DHT22;33708;49.466;11.176;2023-05-28T01:35:37;8.30;1.00
4699;DHT22;33708;49.466;11.176;2023-05-28T01:38:03;8.20;1.00
4699;DHT22;33708;49.466;11.176;2023-05-28T01:40:31;8.10;1.00
4699;DHT22;33708;49.466;11.176;2023-05-28T01:42:58;8.00;1.00
4699;DHT22;33708;49.466;11.176;2023-05-28T01:45:25;8.00;1.00
4699;DHT22;33708;49.466;11.176;2023-05-28T01:47:50;8.00;1.00
4699;DHT22;33708;49.466;11.176;2023-05-28T01:50:17;7.90;1.00
4699;DHT22;33708;49.466;11.176;2023-05-28T01:52:43;7.90;1.00
4699;DHT22;33708;49.466;11.176;2023-05-28T01:55:09;7.90;1.00
4699;DHT22;33708;49.466;11.176;2023-05-28T01:57:37;7.90;1.00
4699;DHT22;33708;49.466;11.176;2023-05-28T02:00:03;8.20;1.00
4699;DHT22;33708;49.466;11.176;2023-05-28T02:02:29;8.00;1.00
4699;DHT22;33708;49.466;11.176;2023-05-28T02:04:55;8.10;1.00
4699;DHT22;33708;49.466;11.176;2023-05-28T02:07:21;8.10;1.00
4699;DHT22;33708;49.466;11.176;2023-05-28T02:09:47;8.00;1.00
4699;DHT22;33708;49.466;11.176;2023-05-28T02:12:12;8.00;1.00
4699;DHT22;33708;49.466;11.176;2023-05-28T02:14:38;7.90;1.00
4699;DHT22;33708;49.466;11.176;2023-05-28T02:17:04;8.00;1.00
4699;DHT22;33708;49.466;11.176;2023-05-28T02:19:29;7.90;1.00
4699;DHT22;33708;49.466;11.176;2023-05-28T02:21:55;7.80;1.00
4699;DHT22;33708;49.466;11.176;2023-05-28T02:24:23;7.80;1.00
4699;DHT22;33708;49.466;11.176;2023-05-28T02:26:49;7.80;1.00
4699;DHT22;33708;49.466;11.176;2023-05-28T02:29:15;7.80;1.00
4699;DHT22;33708;49.466;11.176;2023-05-28T02:31:41;7.80;1.00
4699;DHT22;33708;49.466;11.176;2023-05-28T02:34:07;7.80;1.00
4699;DHT22;33708;49.466;11.176;2023-05-28T02:36:33;7.70;1.00
4699;DHT22;33708;49.466;11.176;2023-05-28T02:38:58;7.60;1.00
4699;DHT22;33708;49.466;11.176;2023-05-28T02:41:24;7.60;1.00
4699;DHT22;33708;49.466;11.176;2023-05-28T02:43:52;7.60;1.00
4699;DHT22;33708;49.466;11.176;2023-05-28T02:46:18;7.60;1.00
4699;DHT22;33708;49.466;11.176;2023-05-28T02:48:44;7.60;1.00
4699;DHT22;33708;49.466;11.176;2023-05-28T02:51:10;7.60;1.00
4699;DHT22;33708;49.466;11.176;2023-05-28T02:53:37;7.60;1.00
4699;DHT22;33708;49.466;11.176;2023-05-28T02:56:02;7.50;1.00
4699;DHT22;33708;49.466;11.176;2023-05-28T02:58:28;7.50;1.00
4699;DHT22;33708;49.466;11.176;2023-05-28T03:00:55;7.50;1.00
4699;DHT22;33708;49.466;11.176;2023-05-28T03:03:21;7.50;1.00
4699;DHT22;33708;49.466;11.176;2023-05-28T03:05:48;7.40;1.00
4699;DHT22;33708;49.466;11.176;2023-05-28T03:08:14;7.40;1.00
4699;DHT22;33708;49.466;11.176;2023-05-28T03:10:39;7.40;1.00
4699;DHT22;33708;49.466;11.176;2023-05-28T03:13:05;7.40;1.00
4699;DHT22;33708;49.466;11.176;2023-05-28T03:15:31;7.40;1.00
4699;DHT22;33708;49.466;11.176;2023-05-28T03:17:57;7.30;1.00
4699;DHT22;33708;49.466;11.176;2023-05-28T03:20:22;7.30;1.00
4699;DHT22;33708;49.466;11.176;2023-05-28T03:22:55;7.40;1.00
4699;DHT22;33708;49.466;11.176;2023-05-28T03:25:21;7.40;1.00
4699;DHT22;33708;49.466;11.176;2023-05-28T03:27:47;7.40;1.00
4699;DHT22;33708;49.466;11.176;2023-05-28T03:30:13;7.60;1.00
4699;DHT22;33708;49.466;11.176;2023-05-28T03:32:39;7.70;1.00
4699;DHT22;33708;49.466;11.176;2023-05-28T03:35:05;7.70;1.00
4699;DHT22;33708;49.466;11.176;2023-05-28T03:37:31;7.80;1.00
4699;DHT22;33708;49.466;11.176;2023-05-28T03:39:57;8.10;1.00
4699;DHT22;33708;49.466;11.176;2023-05-28T03:42:22;8.20;1.00
4699;DHT22;33708;49.466;11.176;2023-05-28T03:44:48;8.40;1.00
4699;DHT22;33708;49.466;11.176;2023-05-28T03:47:13;9.00;1.00
4699;DHT22;33708;49.466;11.176;2023-05-28T03:49:39;9.10;1.00
4699;DHT22;33708;49.466;11.176;2023-05-28T03:52:05;8.90;1.00
4699;DHT22;33708;49.466;11.176;2023-05-28T03:54:31;8.80;1.00
4699;DHT22;33708;49.466;11.176;2023-05-28T03:56:57;9.60;1.00
4699;DHT22;33708;49.466;11.176;2023-05-28T03:59:23;10.50;1.00
4699;DHT22;33708;49.466;11.176;2023-05-28T04:01:48;11.10;1.00
4699;DHT22;33708;49.466;11.176;2023-05-28T04:04:14;11.70;1.00
4699;DHT22;33708;49.466;11.176;2023-05-28T04:06:41;12.30;1.00
4699;DHT22;33708;49.466;11.176;2023-05-28T04:09:07;12.90;1.00
4699;DHT22;33708;49.466;11.176;2023-05-28T04:11:33;13.50;1.00
4699;DHT22;33708;49.466;11.176;2023-05-28T04:14:00;14.10;1.00
4699;DHT22;33708;49.466;11.176;2023-05-28T04:16:26;14.80;1.00
4699;DHT22;33708;49.466;11.176;2023-05-28T04:18:52;15.00;1.00
4699;DHT22;33708;49.466;11.176;2023-05-28T04:21:19;15.70;1.00
4699;DHT22;33708;49.466;11.176;2023-05-28T04:23:46;16.30;1.00
4699;DHT22;33708;49.466;11.176;2023-05-28T04:26:11;17.10;1.00
4699;DHT22;33708;49.466;11.176;2023-05-28T04:28:38;17.60;1.00
4699;DHT22;33708;49.466;11.176;2023-05-28T04:31:04;18.10;1.00
4699;DHT22;33708;49.466;11.176;2023-05-28T04:33:30;18.60;1.00
4699;DHT22;33708;49.466;11.176;2023-05-28T04:35:56;19.30;1.00
4699;DHT22;33708;49.466;11.176;2023-05-28T04:38:25;19.90;1.00
4699;DHT22;33708;49.466;11.176;2023-05-28T04:40:54;20.20;1.00
4699;DHT22;33708;49.466;11.176;2023-05-28T04:43:20;20.60;1.00
4699;DHT22;33708;49.466;11.176;2023-05-28T04:45:47;21.20;1.00
4699;DHT22;33708;49.466;11.176;2023-05-28T04:48:12;21.40;1.00
4699;DHT22;33708;49.466;11.176;2023-05-28T04:50:38;21.90;1.00
4699;DHT22;33708;49.466;11.176;2023-05-28T04:53:04;22.00;1.00
4699;DHT22;33708;49.466;11.176;2023-05-28T04:55:30;22.30;1.00
4699;DHT22;33708;49.466;11.176;2023-05-28T04:57:55;22.90;1.00
4699;DHT22;33708;49.466;11.176;2023-05-28T05:00:21;23.50;1.00
4699;DHT22;33708;49.466;11.176;2023-05-28T05:02:49;23.80;1.00
4699;DHT22;33708;49.466;11.176;2023-05-28T05:05:15;24.50;16.20
4699;DHT22;33708;49.466;11.176;2023-05-28T05:07:41;26.00;1.00
4699;DHT22;33708;49.466;11.176;2023-05-28T05:10:08;26.90;1.00
4699;DHT22;33708;49.466;11.176;2023-05-28T05:12:35;27.60;1.00
4699;DHT22;33708;49.466;11.176;2023-05-28T05:17:27;28.70;1.00
4699;DHT22;33708;49.466;11.176;2023-05-28T05:19:53;29.70;1.00
4699;DHT22;33708;49.466;11.176;2023-05-28T05:22:19;30.10;1.00
4699;DHT22;33708;49.466;11.176;2023-05-28T05:24:47;26.70;1.00
4699;DHT22;33708;49.466;11.176;2023-05-28T05:27:13;27.20;1.00
4699;DHT22;33708;49.466;11.176;2023-05-28T05:29:39;25.80;1.00
4699;DHT22;33708;49.466;11.176;2023-05-28T05:32:05;25.80;1.00
4699;DHT22;33708;49.466;11.176;2023-05-28T05:34:32;27.20;1.00
4699;DHT22;33708;49.466;11.176;2023-05-28T05:36:57;26.60;1.00
4699;DHT22;33708;49.466;11.176;2023-05-28T05:39:24;27.90;1.00
4699;DHT22;33708;49.466;11.176;2023-05-28T05:41:50;27.70;1.00
4699;DHT22;33708;49.466;11.176;2023-05-28T05:44:15;26.40;1.00
4699;DHT22;33708;49.466;11.176;2023-05-28T05:46:41;27.30;1.00
4699;DHT22;33708;49.466;11.176;2023-05-28T05:49:07;28.80;1.00
4699;DHT22;33708;49.466;11.176;2023-05-28T05:51:33;26.60;1.00
4699;DHT22;33708;49.466;11.176;2023-05-28T05:53:59;27.20;1.00
4699;DHT22;33708;49.466;11.176;2023-05-28T05:56:24;27.60;1.00
4699;DHT22;33708;49.466;11.176;2023-05-28T05:58:51;28.20;1.00
4699;DHT22;33708;49.466;11.176;2023-05-28T06:01:17;29.40;1.00
4699;DHT22;33708;49.466;11.176;2023-05-28T06:03:43;29.30;1.00
4699;DHT22;33708;49.466;11.176;2023-05-28T06:06:09;30.60;1.00
4699;DHT22;33708;49.466;11.176;2023-05-28T06:08:35;31.20;1.00
4699;DHT22;33708;49.466;11.176;2023-05-28T06:11:01;32.10;1.00
4699;DHT22;33708;49.466;11.176;2023-05-28T06:13:27;32.80;1.00
4699;DHT22;33708;49.466;11.176;2023-05-28T06:15:53;32.60;1.00
4699;DHT22;33708;49.466;11.176;2023-05-28T06:18:18;32.50;1.00
4699;DHT22;33708;49.466;11.176;2023-05-28T06:20:44;29.70;1.00
4699;DHT22;33708;49.466;11.176;2023-05-28T06:23:10;29.40;1.00
4699;DHT22;33708;49.466;11.176;2023-05-28T06:25:36;30.10;1.00
4699;DHT22;33708;49.466;11.176;2023-05-28T06:28:02;30.00;1.00
4699;DHT22;33708;49.466;11.176;2023-05-28T06:30:28;29.30;1.00
4699;DHT22;33708;49.466;11.176;2023-05-28T06:32:55;28.80;1.00
4699;DHT22;33708;49.466;11.176;2023-05-28T06:35:20;30.50;1.00
4699;DHT22;33708;49.466;11.176;2023-05-28T06:37:46;31.70;1.00
4699;DHT22;33708;49.466;11.176;2023-05-28T06:40:12;29.10;1.00
4699;DHT22;33708;49.466;11.176;2023-05-28T06:42:38;31.90;1.00
4699;DHT22;33708;49.466;11.176;2023-05-28T06:45:04;28.90;1.00
4699;DHT22;33708;49.466;11.176;2023-05-28T06:47:30;30.10;1.00
4699;DHT22;33708;49.466;11.176;2023-05-28T06:49:56;31.40;1.00
4699;DHT22;33708;49.466;11.176;2023-05-28T06:52:22;32.00;1.00
4699;DHT22;33708;49.466;11.176;2023-05-28T06:54:48;29.70;1.00
4699;DHT22;33708;49.466;11.176;2023-05-28T06:57:14;31.40;1.00
4699;DHT22;33708;49.466;11.176;2023-05-28T06:59:40;31.10;99.90
4699;DHT22;33708;49.466;11.176;2023-05-28T07:02:05;32.70;99.90
4699;DHT22;33708;49.466;11.176;2023-05-28T07:04:31;33.70;99.90
4699;DHT22;33708;49.466;11.176;2023-05-28T07:09:23;33.00;1.00
4699;DHT22;33708;49.466;11.176;2023-05-28T07:11:48;33.00;1.00
4699;DHT22;33708;49.466;11.176;2023-05-28T07:14:14;33.20;1.00
4699;DHT22;33708;49.466;11.176;2023-05-28T07:16:40;34.40;1.00
4699;DHT22;33708;49.466;11.176;2023-05-28T07:19:06;34.60;1.00
4699;DHT22;33708;49.466;11.176;2023-05-28T07:21:31;36.90;1.00
4699;DHT22;33708;49.466;11.176;2023-05-28T07:23:58;36.30;1.00
4699;DHT22;33708;49.466;11.176;2023-05-28T07:26:24;36.80;1.00
4699;DHT22;33708;49.466;11.176;2023-05-28T07:28:50;37.00;1.00
4699;DHT22;33708;49.466;11.176;2023-05-28T07:31:16;38.30;1.00
4699;DHT22;33708;49.466;11.176;2023-05-28T07:33:42;37.60;1.00
4699;DHT22;33708;49.466;11.176;2023-05-28T07:36:07;38.10;1.00
4699;DHT22;33708;49.466;11.176;2023-05-28T07:38:34;39.30;1.00
4699;DHT22;33708;49.466;11.176;2023-05-28T07:40:59;38.00;1.00
4699;DHT22;33708;49.466;11.176;2023-05-28T07:43:25;38.00;1.00
4699;DHT22;33708;49.466;11.176;2023-05-28T07:45:51;38.00;1.00
4699;DHT22;33708;49.466;11.176;2023-05-28T07:48:16;36.70;1.00
4699;DHT22;33708;49.466;11.176;2023-05-28T07:50:42;39.30;1.00
4699;DHT22;33708;49.466;11.176;2023-05-28T07:53:08;37.90;1.00
4699;DHT22;33708;49.466;11.176;2023-05-28T07:55:34;38.30;1.00
4699;DHT22;33708;49.466;11.176;2023-05-28T07:58:00;39.00;1.00
4699;DHT22;33708;49.466;11.176;2023-05-28T08:00:26;36.50;1.00
4699;DHT22;33708;49.466;11.176;2023-05-28T08:02:52;35.10;1.00
4699;DHT22;33708;49.466;11.176;2023-05-28T08:05:18;39.00;1.00
4699;DHT22;33708;49.466;11.176;2023-05-28T08:07:44;37.90;1.00
4699;DHT22;33708;49.466;11.176;2023-05-28T08:10:10;36.10;1.00
4699;DHT22;33708;49.466;11.176;2023-05-28T08:12:36;35.80;1.00
4699;DHT22;33708;49.466;11.176;2023-05-28T08:15:02;34.50;1.00
4699;DHT22;33708;49.466;11.176;2023-05-28T08:17:30;35.60;1.00
4699;DHT22;33708;49.466;11.176;2023-05-28T08:19:59;33.70;1.00
4699;DHT22;33708;49.466;11.176;2023-05-28T08:22:25;34.10;1.00
4699;DHT22;33708;49.466;11.176;2023-05-28T08:24:51;33.50;1.00
4699;DHT22;33708;49.466;11.176;2023-05-28T08:27:16;31.60;1.00
4699;DHT22;33708;49.466;11.176;2023-05-28T08:29:42;33.00;1.00
4699;DHT22;33708;49.466;11.176;2023-05-28T08:32:07;33.00;1.00
4699;DHT22;33708;49.466;11.176;2023-05-28T08:34:33;33.00;1.00
4699;DHT22;33708;49.466;11.176;2023-05-28T08:37:03;32.60;1.00
4699;DHT22;33708;49.466;11.176;2023-05-28T08:39:29;32.60;1.00
4699;DHT22;33708;49.466;11.176;2023-05-28T08:41:56;31.90;1.00
4699;DHT22;33708;49.466;11.176;2023-05-28T08:44:22;34.60;1.00
4699;DHT22;33708;49.466;11.176;2023-05-28T08:46:48;33.90;1.00
4699;DHT22;33708;49.466;11.176;2023-05-28T08:49:17;34.00;1.00
4699;DHT22;33708;49.466;11.176;2023-05-28T08:51:43;35.30;1.00
4699;DHT22;33708;49.466;11.176;2023-05-28T08:54:12;35.50;1.00
4699;DHT22;33708;49.466;11.176;2023-05-28T08:56:39;35.80;1.00
4699;DHT22;33708;49.466;11.176;2023-05-28T08:59:05;35.10;1.00
4699;DHT22;33708;49.466;11.176;2023-05-28T09:01:33;35.10;1.00
4699;DHT22;33708;49.466;11.176;2023-05-28T09:03:58;35.90;1.00
4699;DHT22;33708;49.466;11.176;2023-05-28T09:06:24;34.60;1.00
4699;DHT22;33708;49.466;11.176;2023-05-28T09:08:50;35.00;1.00
4699;DHT22;33708;49.466;11.176;2023-05-28T09:11:18;34.80;1.00
4699;DHT22;33708;49.466;11.176;2023-05-28T09:13:45;34.70;1.00
4699;DHT22;33708;49.466;11.176;2023-05-28T09:16:12;34.40;1.00
4699;DHT22;33708;49.466;11.176;2023-05-28T09:18:48;32.10;1.00
4699;DHT22;33708;49.466;11.176;2023-05-28T09:21:13;32.80;1.00
4699;DHT22;33708;49.466;11.176;2023-05-28T09:23:39;33.30;1.00
4699;DHT22;33708;49.466;11.176;2023-05-28T09:26:08;31.90;1.00
4699;DHT22;33708;49.466;11.176;2023-05-28T09:28:43;30.50;1.00
4699;DHT22;33708;49.466;11.176;2023-05-28T09:31:09;32.00;1.00
4699;DHT22;33708;49.466;11.176;2023-05-28T09:33:41;31.50;1.00
4699;DHT22;33708;49.466;11.176;2023-05-28T09:36:07;30.90;1.00
4699;DHT22;33708;49.466;11.176;2023-05-28T09:38:42;31.60;1.00
4699;DHT22;33708;49.466;11.176;2023-05-28T09:41:26;28.60;1.00
4699;DHT22;33708;49.466;11.176;2023-05-28T09:43:57;29.90;1.00
4699;DHT22;33708;49.466;11.176;2023-05-28T09:46:33;31.40;1.00
4699;DHT22;33708;49.466;11.176;2023-05-28T09:49:00;32.20;1.00
4699;DHT22;33708;49.466;11.176;2023-05-28T09:51:29;30.70;1.00
4699;DHT22;33708;49.466;11.176;2023-05-28T09:54:02;29.40;1.00
4699;DHT22;33708;49.466;11.176;2023-05-28T09:56:30;27.80;1.00
4699;DHT22;33708;49.466;11.176;2023-05-28T09:58:57;26.70;1.00
4699;DHT22;33708;49.466;11.176;2023-05-28T10:01:25;25.20;1.00
4699;DHT22;33708;49.466;11.176;2023-05-28T10:04:05;24.30;1.00
4699;DHT22;33708;49.466;11.176;2023-05-28T10:06:33;24.20;1.00
4699;DHT22;33708;49.466;11.176;2023-05-28T10:09:02;24.20;1.00
4699;DHT22;33708;49.466;11.176;2023-05-28T10:11:36;24.00;1.00
4699;DHT22;33708;49.466;11.176;2023-05-28T10:14:03;24.10;1.00
4699;DHT22;33708;49.466;11.176;2023-05-28T10:16:31;24.30;1.00
4699;DHT22;33708;49.466;11.176;2023-05-28T10:18:57;24.30;1.00
4699;DHT22;33708;49.466;11.176;2023-05-28T10:21:24;23.10;1.00
4699;DHT22;33708;49.466;11.176;2023-05-28T10:23:49;23.30;1.00
4699;DHT22;33708;49.466;11.176;2023-05-28T10:26:15;23.20;1.00
4699;DHT22;33708;49.466;11.176;2023-05-28T10:28:42;23.20;1.00
4699;DHT22;33708;49.466;11.176;2023-05-28T10:31:08;23.50;1.00
4699;DHT22;33708;49.466;11.176;2023-05-28T10:33:42;23.20;1.00
4699;DHT22;33708;49.466;11.176;2023-05-28T10:36:14;23.40;1.00
4699;DHT22;33708;49.466;11.176;2023-05-28T10:38:50;23.60;1.00
4699;DHT22;33708;49.466;11.176;2023-05-28T10:41:22;23.60;1.00
4699;DHT22;33708;49.466;11.176;2023-05-28T10:43:49;23.50;1.00
4699;DHT22;33708;49.466;11.176;2023-05-28T10:46:26;23.10;1.00
4699;DHT22;33708;49.466;11.176;2023-05-28T10:51:58;23.40;1.00
4699;DHT22;33708;49.466;11.176;2023-05-28T10:57:44;23.40;1.00
4699;DHT22;33708;49.466;11.176;2023-05-28T11:00:10;23.70;1.00
4699;DHT22;33708;49.466;11.176;2023-05-28T11:02:40;23.90;1.00
4699;DHT22;33708;49.466;11.176;2023-05-28T11:05:07;23.60;1.00
4699;DHT22;33708;49.466;11.176;2023-05-28T11:07:38;23.80;1.00
4699;DHT22;33708;49.466;11.176;2023-05-28T11:10:06;24.10;1.00
4699;DHT22;33708;49.466;11.176;2023-05-28T11:12:35;24.20;1.00
4699;DHT22;33708;49.466;11.176;2023-05-28T11:15:01;24.30;1.00
4699;DHT22;33708;49.466;11.176;2023-05-28T11:17:27;24.50;1.00
4699;DHT22;33708;49.466;11.176;2023-05-28T11:19:53;24.70;1.00
4699;DHT22;33708;49.466;11.176;2023-05-28T11:22:20;24.50;1.00
4699;DHT22;33708;49.466;11.176;2023-05-28T11:24:58;24.50;1.00
4699;DHT22;33708;49.466;11.176;2023-05-28T11:27:29;24.60;1.00
4699;DHT22;33708;49.466;11.176;2023-05-28T11:29:57;24.50;1.00
4699;DHT22;33708;49.466;11.176;2023-05-28T11:32:24;24.70;1.00
4699;DHT22;33708;49.466;11.176;2023-05-28T11:34:51;24.50;1.00
4699;DHT22;33708;49.466;11.176;2023-05-28T11:37:26;24.70;1.00
4699;DHT22;33708;49.466;11.176;2023-05-28T11:39:55;24.60;1.00
4699;DHT22;33708;49.466;11.176;2023-05-28T11:42:21;24.40;1.00
4699;DHT22;33708;49.466;11.176;2023-05-28T11:44:48;24.90;1.00
4699;DHT22;33708;49.466;11.176;2023-05-28T11:47:15;24.80;1.00
4699;DHT22;33708;49.466;11.176;2023-05-28T11:49:41;24.40;1.00
4699;DHT22;33708;49.466;11.176;2023-05-28T11:52:23;24.50;1.00
4699;DHT22;33708;49.466;11.176;2023-05-28T11:54:54;24.40;1.00
4699;DHT22;33708;49.466;11.176;2023-05-28T11:57:27;24.50;1.00
4699;DHT22;33708;49.466;11.176;2023-05-28T12:00:14;24.90;1.00
4699;DHT22;33708;49.466;11.176;2023-05-28T12:02:45;24.70;1.00
4699;DHT22;33708;49.466;11.176;2023-05-28T12:05:12;24.30;1.00
4699;DHT22;33708;49.466;11.176;2023-05-28T12:07:42;24.70;1.00
4699;DHT22;33708;49.466;11.176;2023-05-28T12:10:10;24.60;1.00
4699;DHT22;33708;49.466;11.176;2023-05-28T12:12:50;24.90;1.00
4699;DHT22;33708;49.466;11.176;2023-05-28T12:15:17;25.00;1.00
4699;DHT22;33708;49.466;11.176;2023-05-28T12:17:44;25.20;1.00
4699;DHT22;33708;49.466;11.176;2023-05-28T12:22:40;26.10;1.00
4699;DHT22;33708;49.466;11.176;2023-05-28T12:25:07;25.60;1.00
4699;DHT22;33708;49.466;11.176;2023-05-28T12:27:33;25.80;1.00
4699;DHT22;33708;49.466;11.176;2023-05-28T12:29:58;25.70;1.00
4699;DHT22;33708;49.466;11.176;2023-05-28T12:32:25;25.60;1.00
4699;DHT22;33708;49.466;11.176;2023-05-28T12:34:52;24.70;1.00
4699;DHT22;33708;49.466;11.176;2023-05-28T12:37:20;25.30;1.00
4699;DHT22;33708;49.466;11.176;2023-05-28T12:39:45;25.20;1.00
4699;DHT22;33708;49.466;11.176;2023-05-28T12:42:11;25.50;1.00
4699;DHT22;33708;49.466;11.176;2023-05-28T12:44:37;24.70;1.00
4699;DHT22;33708;49.466;11.176;2023-05-28T12:47:02;25.30;1.00
4699;DHT22;33708;49.466;11.176;2023-05-28T12:49:28;25.50;1.00
4699;DHT22;33708;49.466;11.176;2023-05-28T12:51:54;25.80;1.00
4699;DHT22;33708;49.466;11.176;2023-05-28T12:54:20;25.70;1.00
4699;DHT22;33708;49.466;11.176;2023-05-28T12:56:46;25.70;1.00
4699;DHT22;33708;49.466;11.176;2023-05-28T12:59:22;26.20;1.00
4699;DHT22;33708;49.466;11.176;2023-05-28T13:01:48;26.30;1.00
4699;DHT22;33708;49.466;11.176;2023-05-28T13:04:14;26.00;1.00
4699;DHT22;33708;49.466;11.176;2023-05-28T13:06:40;26.20;1.00
4699;DHT22;33708;49.466;11.176;2023-05-28T13:09:06;26.60;1.00
4699;DHT22;33708;49.466;11.176;2023-05-28T13:11:32;26.30;1.00
4699;DHT22;33708;49.466;11.176;2023-05-28T13:13:58;26.10;1.00
4699;DHT22;33708;49.466;11.176;2023-05-28T13:16:24;25.20;1.00
4699;DHT22;33708;49.466;11.176;2023-05-28T13:18:49;25.60;1.00
4699;DHT22;33708;49.466;11.176;2023-05-28T13:21:15;25.90;1.00
4699;DHT22;33708;49.466;11.176;2023-05-28T13:23:40;26.20;1.00
4699;DHT22;33708;49.466;11.176;2023-05-28T13:26:06;26.50;1.00
4699;DHT22;33708;49.466;11.176;2023-05-28T13:28:32;26.60;1.00
4699;DHT22;33708;49.466;11.176;2023-05-28T13:30:57;26.60;1.00
4699;DHT22;33708;49.466;11.176;2023-05-28T13:33:23;26.20;1.00
4699;DHT22;33708;49.466;11.176;2023-05-28T13:35:49;26.30;1.00
4699;DHT22;33708;49.466;11.176;2023-05-28T13:38:15;26.40;1.00
4699;DHT22;33708;49.466;11.176;2023-05-28T13:40:43;26.30;1.00
4699;DHT22;33708;49.466;11.176;2023-05-28T13:43:10;27.10;1.00
4699;DHT22;33708;49.466;11.176;2023-05-28T13:45:36;26.90;1.00
4699;DHT22;33708;49.466;11.176;2023-05-28T13:48:02;26.70;1.00
4699;DHT22;33708;49.466;11.176;2023-05-28T13:50:28;26.60;1.00
4699;DHT22;33708;49.466;11.176;2023-05-28T13:52:55;26.70;1.00
4699;DHT22;33708;49.466;11.176;2023-05-28T13:55:21;26.40;1.00
4699;DHT22;33708;49.466;11.176;2023-05-28T13:57:47;26.90;1.00
4699;DHT22;33708;49.466;11.176;2023-05-28T14:00:13;26.90;1.00
4699;DHT22;33708;49.466;11.176;2023-05-28T14:02:39;26.30;1.00
4699;DHT22;33708;49.466;11.176;2023-05-28T14:05:05;26.60;1.00
4699;DHT22;33708;49.466;11.176;2023-05-28T14:07:31;26.30;1.00
4699;DHT22;33708;49.466;11.176;2023-05-28T14:09:56;26.50;1.00
4699;DHT22;33708;49.466;11.176;2023-05-28T14:12:22;26.60;1.00
4699;DHT22;33708;49.466;11.176;2023-05-28T14:14:48;26.60;1.00
4699;DHT22;33708;49.466;11.176;2023-05-28T14:17:13;26.90;1.00
4699;DHT22;33708;49.466;11.176;2023-05-28T14:19:39;26.70;1.00
4699;DHT22;33708;49.466;11.176;2023-05-28T14:22:05;26.60;1.00
4699;DHT22;33708;49.466;11.176;2023-05-28T14:24:31;26.80;1.00
4699;DHT22;33708;49.466;11.176;2023-05-28T14:26:56;26.40;1.00
4699;DHT22;33708;49.466;11.176;2023-05-28T14:29:22;26.10;1.00
4699;DHT22;33708;49.466;11.176;2023-05-28T14:31:47;26.40;1.00
4699;DHT22;33708;49.466;11.176;2023-05-28T14:34:13;26.20;1.00
4699;DHT22;33708;49.466;11.176;2023-05-28T14:36:39;26.70;1.00
4699;DHT22;33708;49.466;11.176;2023-05-28T14:39:04;26.40;1.00
4699;DHT22;33708;49.466;11.176;2023-05-28T14:41:30;26.30;1.00
4699;DHT22;33708;49.466;11.176;2023-05-28T14:43:56;26.30;1.00
4699;DHT22;33708;49.466;11.176;2023-05-28T14:46:21;26.50;1.00
4699;DHT22;33708;49.466;11.176;2023-05-28T14:48:47;27.00;1.00
4699;DHT22;33708;49.466;11.176;2023-05-28T14:51:13;27.00;1.00
4699;DHT22;33708;49.466;11.176;2023-05-28T14:53:38;27.20;1.00
4699;DHT22;33708;49.466;11.176;2023-05-28T14:56:05;26.90;1.00
4699;DHT22;33708;49.466;11.176;2023-05-28T14:58:31;27.10;1.00
4699;DHT22;33708;49.466;11.176;2023-05-28T15:00:57;26.80;1.00
4699;DHT22;33708;49.466;11.176;2023-05-28T15:03:22;26.40;1.00
4699;DHT22;33708;49.466;11.176;2023-05-28T15:05:48;26.50;1.00
4699;DHT22;33708;49.466;11.176;2023-05-28T15:08:15;26.10;1.00
4699;DHT22;33708;49.466;11.176;2023-05-28T15:10:41;26.10;1.00
4699;DHT22;33708;49.466;11.176;2023-05-28T15:13:08;26.20;1.00
4699;DHT22;33708;49.466;11.176;2023-05-28T15:15:34;26.00;1.00
4699;DHT22;33708;49.466;11.176;2023-05-28T15:18:00;26.30;1.00
4699;DHT22;33708;49.466;11.176;2023-05-28T15:20:25;26.70;1.00
4699;DHT22;33708;49.466;11.176;2023-05-28T15:22:51;26.40;1.00
4699;DHT22;33708;49.466;11.176;2023-05-28T15:25:17;26.60;1.00
4699;DHT22;33708;49.466;11.176;2023-05-28T15:27:46;26.30;1.00
4699;DHT22;33708;49.466;11.176;2023-05-28T15:30:12;26.10;1.00
4699;DHT22;33708;49.466;11.176;2023-05-28T15:32:38;25.70;1.00
4699;DHT22;33708;49.466;11.176;2023-05-28T15:35:04;25.10;1.00
4699;DHT22;33708;49.466;11.176;2023-05-28T15:37:30;25.60;1.00
4699;DHT22;33708;49.466;11.176;2023-05-28T15:39:55;26.10;1.00
4699;DHT22;33708;49.466;11.176;2023-05-28T15:42:22;26.20;1.00
4699;DHT22;33708;49.466;11.176;2023-05-28T15:44:48;26.20;1.00
4699;DHT22;33708;49.466;11.176;2023-05-28T15:47:14;26.10;1.00
4699;DHT22;33708;49.466;11.176;2023-05-28T15:49:40;25.90;1.00
4699;DHT22;33708;49.466;11.176;2023-05-28T15:52:05;25.70;1.00
4699;DHT22;33708;49.466;11.176;2023-05-28T15:54:31;25.70;1.00
4699;DHT22;33708;49.466;11.176;2023-05-28T15:56:57;25.50;1.00
4699;DHT22;33708;49.466;11.176;2023-05-28T15:59:22;25.60;1.00